Time;durP1;ratioP1;P1;durP2;ratioP2;P2;SDS_P1;SDS_P2;PMS_P1;PMS_P2;Temp;Humidity;BMP_temperature;BMP_pressure;BME280_temperature;BME280_humidity;BME280_pressure;Samples;Min_cycle;Max_cycle;Signal;HPM_P1;HPM_P2
2022/04/04 00:02:04;;;;;;;0.30;0.30;;;;;;;11.97;32.88;100294.63;5085077;28;20531;-87
2022/04/04 00:04:32;;;;;;;0.70;0.55;;;;;;;11.35;32.87;100231.97;5088755;28;20072;-89
2022/04/04 00:07:00;;;;;;;0.73;0.73;;;;;;;10.74;32.89;100168.25;5089037;28;20048;-88
2022/04/04 00:09:27;;;;;;;3.53;1.43;;;;;;;10.43;32.75;100068.81;5079199;28;20112;-87
2022/04/04 00:11:54;;;;;;;0.70;0.60;;;;;;;10.78;32.46;100121.84;5102751;28;20048;-88
2022/04/04 00:14:21;;;;;;;0.43;0.43;;;;;;;12.13;32.31;100323.28;5087667;28;20059;-88
2022/04/04 00:16:49;;;;;;;0.73;0.47;;;;;;;12.16;32.32;100335.84;5095704;28;20033;-89
2022/04/04 00:19:16;;;;;;;0.57;0.50;;;;;;;11.97;32.33;100328.22;5093323;28;20139;-88
2022/04/04 00:21:44;;;;;;;0.43;0.43;;;;;;;11.83;32.08;100310.41;5092382;28;20051;-88
2022/04/04 00:24:11;;;;;;;0.87;0.53;;;;;;;11.09;32.08;100204.28;5087773;28;20049;-87
2022/04/04 00:26:38;;;;;;;0.63;0.47;;;;;;;11.88;31.93;100293.59;5083701;28;20061;-88
2022/04/04 00:29:05;;;;;;;0.63;0.50;;;;;;;11.75;31.82;100285.88;5084070;28;20040;-86
2022/04/04 00:31:32;;;;;;;1.47;0.53;;;;;;;11.78;31.78;100271.28;5087542;28;20161;-90
2022/04/04 00:33:59;;;;;;;0.40;0.40;;;;;;;11.76;31.61;100259.53;5074158;28;20052;-88
2022/04/04 00:36:26;;;;;;;2.87;0.60;;;;;;;11.26;31.54;100177.84;5074784;28;20044;-88
2022/04/04 00:38:53;;;;;;;1.47;0.70;;;;;;;11.25;31.58;100192.97;5075103;28;20049;-89
2022/04/04 00:41:20;;;;;;;2.27;0.70;;;;;;;12.13;31.50;100325.25;5070414;28;20118;-88
2022/04/04 00:43:51;;;;;;;0.90;0.57;;;;;;;12.04;31.23;100322.28;5071200;28;20049;-89
2022/04/04 00:46:19;;;;;;;0.67;0.60;;;;;;;11.05;31.58;100169.66;5066712;28;20056;-89
2022/04/04 00:48:46;;;;;;;0.80;0.63;;;;;;;11.83;31.27;100291.66;5072884;28;20135;-89
2022/04/04 00:51:13;;;;;;;1.10;0.77;;;;;;;11.81;31.39;100271.53;5070337;28;20053;-89
2022/04/04 00:53:40;;;;;;;0.60;0.60;;;;;;;11.82;31.20;100325.53;5066866;28;20147;-88
2022/04/04 00:56:09;;;;;;;0.90;0.70;;;;;;;11.28;31.23;100248.25;5058628;28;20049;-88
2022/04/04 00:58:38;;;;;;;0.63;0.50;;;;;;;11.39;31.11;100303.81;5076679;28;20083;-90
2022/04/04 01:01:05;;;;;;;0.70;0.53;;;;;;;11.57;31.01;100313.44;5068178;28;20098;-88
2022/04/04 01:03:33;;;;;;;0.33;0.33;;;;;;;11.44;31.27;100325.28;5071073;28;20113;-89
2022/04/04 01:06:00;;;;;;;0.27;0.27;;;;;;;11.33;30.77;100310.56;5063650;28;20110;-89
2022/04/04 01:08:27;;;;;;;1.43;0.40;;;;;;;11.59;30.37;100321.56;5071493;28;20099;-89
2022/04/04 01:10:54;;;;;;;1.10;0.60;;;;;;;11.53;30.48;100320.75;5067089;28;20131;-89
2022/04/04 01:13:21;;;;;;;0.60;0.60;;;;;;;11.46;30.72;100311.03;5064859;28;20051;-88
2022/04/04 01:15:49;;;;;;;2.03;0.70;;;;;;;11.38;30.56;100290.09;5063983;28;20060;-88
2022/04/04 01:18:16;;;;;;;0.40;0.40;;;;;;;11.25;30.91;100296.38;5064887;28;20049;-88
2022/04/04 01:20:43;;;;;;;0.57;0.47;;;;;;;11.37;30.71;100319.19;5064470;28;20129;-89
2022/04/04 01:23:13;;;;;;;0.43;0.43;;;;;;;10.61;31.20;100229.22;5075061;28;20089;-87
2022/04/04 01:25:40;;;;;;;1.70;1.60;;;;;;;11.09;31.26;100316.06;5072616;28;20049;-87
2022/04/04 01:28:07;;;;;;;0.67;0.53;;;;;;;10.69;31.20;100264.06;5066215;28;20084;-87
2022/04/04 01:30:34;;;;;;;0.50;0.30;;;;;;;10.98;31.30;100305.25;5081905;28;20113;-88
2022/04/04 01:33:01;;;;;;;1.03;0.63;;;;;;;10.80;31.07;100270.41;5070569;28;20512;-88
2022/04/04 01:35:28;;;;;;;1.80;0.60;;;;;;;10.84;31.08;100271.53;5067800;28;20472;-88
2022/04/04 01:37:55;;;;;;;0.40;0.40;;;;;;;11.24;31.00;100337.47;5068830;28;20048;-88
2022/04/04 01:40:22;;;;;;;0.63;0.47;;;;;;;11.27;30.80;100320.09;5066155;28;20044;-88
2022/04/04 01:42:52;;;;;;;0.53;0.53;;;;;;;10.47;31.18;100264.47;5067380;28;20156;-88
2022/04/04 01:46:23;;;;;;;0.60;0.45;;;;;;;11.01;30.93;100330.66;5063472;28;20045;-88
2022/04/04 01:48:09;;;;;;;0.30;0.30;;;;;;;10.89;31.12;100291.03;5064218;28;20481;-87
2022/04/04 01:50:37;;;;;;;0.83;0.50;;;;;;;11.23;30.83;100330.22;5069928;28;20131;-87
2022/04/04 01:55:50;;;;;;;1.87;0.60;;;;;;;11.11;30.83;100321.34;5066138;28;20122;-89
2022/04/04 01:58:17;;;;;;;0.50;0.50;;;;;;;11.07;31.07;100309.91;5064558;28;20500;-88
2022/04/04 02:00:44;;;;;;;1.13;0.50;;;;;;;11.08;30.80;100321.94;5070826;28;20076;-87
2022/04/04 02:03:11;;;;;;;0.70;0.50;;;;;;;11.01;30.52;100338.16;5067148;28;20075;-87
2022/04/04 02:05:38;;;;;;;1.20;0.70;;;;;;;10.90;30.30;100348.56;5082787;28;20048;-87
2022/04/04 02:08:05;;;;;;;0.97;0.60;;;;;;;10.76;30.38;100302.84;5074233;28;20147;-87
2022/04/04 02:10:33;;;;;;;0.47;0.37;;;;;;;10.62;29.98;100336.97;5069924;28;20273;-87
2022/04/04 02:13:00;;;;;;;0.87;0.57;;;;;;;10.30;30.13;100319.81;5076130;28;20510;-89
2022/04/04 02:15:26;;;;;;;0.60;0.60;;;;;;;10.35;30.11;100342.13;5073067;28;20081;-88
2022/04/04 02:17:53;;;;;;;0.40;0.40;;;;;;;10.29;29.66;100323.72;5075260;28;20083;-88
2022/04/04 02:20:20;;;;;;;0.50;0.50;;;;;;;9.92;30.15;100283.06;5072331;28;20124;-87
2022/04/04 02:22:48;;;;;;;0.90;0.43;;;;;;;10.21;30.32;100302.78;5068024;28;20114;-87
2022/04/04 02:25:15;;;;;;;0.60;0.47;;;;;;;10.34;30.03;100309.75;5070682;28;20552;-86
2022/04/04 02:27:42;;;;;;;0.80;0.50;;;;;;;10.20;30.06;100301.94;5088760;28;20076;-88
2022/04/04 02:30:10;;;;;;;1.50;0.50;;;;;;;10.14;30.11;100325.41;5076264;28;20076;-87
2022/04/04 02:32:37;;;;;;;2.97;0.90;;;;;;;10.19;30.27;100311.44;5070712;28;20139;-87
2022/04/04 02:35:05;;;;;;;0.80;0.80;;;;;;;10.29;30.06;100337.66;5068807;28;20041;-85
2022/04/04 02:37:32;;;;;;;0.40;0.40;;;;;;;10.21;30.23;100309.19;5078219;28;20068;-85
2022/04/04 02:40:00;;;;;;;0.30;0.30;;;;;;;10.13;30.31;100293.03;5074249;28;20078;-85
2022/04/04 02:42:26;;;;;;;0.50;0.50;;;;;;;10.18;30.43;100320.91;5082182;28;20513;-86
2022/04/04 02:44:54;;;;;;;2.80;0.73;;;;;;;9.80;30.72;100288.09;5086103;28;20052;-85
2022/04/04 02:47:21;;;;;;;1.03;0.57;;;;;;;8.92;30.55;100159.22;5076846;28;20056;-87
2022/04/04 02:49:48;;;;;;;1.50;0.40;;;;;;;9.65;30.89;100273.09;5068427;28;20091;-87
2022/04/04 02:52:15;;;;;;;0.50;0.50;;;;;;;9.86;30.99;100306.50;5070040;28;20049;-86
2022/04/04 02:54:42;;;;;;;0.50;0.30;;;;;;;9.78;30.90;100277.25;5073609;28;20128;-86
2022/04/04 02:57:09;;;;;;;0.93;0.93;;;;;;;9.84;30.83;100281.69;5069982;28;20465;-86
2022/04/04 02:59:37;;;;;;;0.50;0.50;;;;;;;9.57;30.75;100253.28;5078029;28;20136;-86
2022/04/04 03:02:04;;;;;;;2.00;0.53;;;;;;;9.97;30.84;100302.56;5068533;28;20088;-86
2022/04/04 03:04:32;;;;;;;1.47;0.70;;;;;;;9.63;30.77;100252.16;5075003;28;20087;-87
2022/04/04 03:07:00;;;;;;;1.53;0.70;;;;;;;9.42;31.11;100237.44;5070515;28;20159;-87
2022/04/04 03:09:27;;;;;;;0.70;0.60;;;;;;;9.95;30.84;100321.56;5060286;28;20467;-86
2022/04/04 03:11:54;;;;;;;0.30;0.30;;;;;;;9.81;30.83;100323.25;5069216;28;20084;-87
2022/04/04 03:14:21;;;;;;;2.83;0.70;;;;;;;9.27;31.03;100259.75;5073404;28;20227;-86
2022/04/04 03:16:48;;;;;;;0.73;0.50;;;;;;;9.28;30.97;100297.63;5073250;28;20080;-87
2022/04/04 03:19:15;;;;;;;1.33;0.70;;;;;;;8.84;31.15;100231.31;5072058;28;20116;-86
2022/04/04 03:21:42;;;;;;;2.50;0.87;;;;;;;9.21;31.11;100300.69;5070334;28;20056;-88
2022/04/04 03:24:12;;;;;;;1.07;0.70;;;;;;;9.05;31.02;100291.47;5070042;28;20049;-87
2022/04/04 03:26:39;;;;;;;2.60;1.47;;;;;;;8.91;31.24;100249.41;5075400;28;20056;-87
2022/04/04 03:29:05;;;;;;;1.33;0.67;;;;;;;9.40;30.79;100309.31;5076163;28;20048;-88
2022/04/04 03:31:32;;;;;;;1.00;0.50;;;;;;;9.07;30.91;100261.41;5071786;28;20076;-88
2022/04/04 03:34:00;;;;;;;0.83;0.80;;;;;;;8.94;30.84;100242.47;5058117;28;20128;-88
2022/04/04 03:36:27;;;;;;;0.63;0.47;;;;;;;9.45;30.63;100306.56;5077724;28;20045;-88
2022/04/04 03:38:54;;;;;;;2.20;2.10;;;;;;;9.36;30.78;100297.06;5095923;28;20052;-88
2022/04/04 03:41:21;;;;;;;3.30;0.70;;;;;;;9.55;30.75;100300.97;5088113;28;20062;-87
2022/04/04 03:43:48;;;;;;;5.30;0.90;;;;;;;9.44;30.44;100277.03;5084089;28;20101;-90
2022/04/04 03:46:15;;;;;;;1.80;0.47;;;;;;;9.22;30.54;100235.50;5078328;28;20531;-88
2022/04/04 03:48:42;;;;;;;0.80;0.63;;;;;;;9.60;30.40;100297.34;5067395;28;20497;-88
2022/04/04 03:51:09;;;;;;;1.27;0.50;;;;;;;9.62;30.34;100283.97;5074245;28;20068;-88
2022/04/04 03:53:36;;;;;;;0.40;0.40;;;;;;;9.68;30.04;100285.63;5067994;28;20068;-88
2022/04/04 03:56:03;;;;;;;1.13;0.63;;;;;;;9.54;30.22;100237.97;5066762;28;20045;-88
2022/04/04 03:58:30;;;;;;;1.33;0.50;;;;;;;9.68;30.34;100297.63;5070505;28;20044;-88
2022/04/04 04:00:57;;;;;;;0.90;0.60;;;;;;;9.50;30.54;100287.03;5064221;28;20048;-88
2022/04/04 04:03:24;;;;;;;2.23;0.73;;;;;;;9.51;30.44;100297.09;5071144;28;20052;-87
2022/04/04 04:06:11;;;;;;;2.13;0.83;;;;;;;9.30;30.33;100270.31;5067741;28;20492;-88
2022/04/04 04:08:46;;;;;;;0.80;0.60;;;;;;;8.74;30.74;100191.19;5071397;28;20048;-87
2022/04/04 04:11:15;;;;;;;1.70;1.43;;;;;;;9.41;30.51;100288.72;5072103;28;20083;-87
2022/04/04 04:13:47;;;;;;;5.97;2.50;;;;;;;9.50;30.46;100287.03;5067788;28;20132;-87
2022/04/04 04:16:14;;;;;;;2.60;2.40;;;;;;;9.51;30.12;100283.16;5066995;28;20044;-86
2022/04/04 04:18:42;;;;;;;5.00;2.43;;;;;;;9.66;30.31;100282.28;5061201;28;20071;-85
2022/04/04 04:21:11;;;;;;;2.97;2.43;;;;;;;9.79;30.39;100294.81;5065825;28;20094;-85
2022/04/04 04:23:42;;;;;;;1.40;0.80;;;;;;;9.67;30.36;100276.41;5057777;28;20051;-85
2022/04/04 04:26:13;;;;;;;1.73;0.70;;;;;;;9.76;30.29;100295.38;5069050;28;20373;-85
2022/04/04 04:28:42;;;;;;;0.93;0.67;;;;;;;9.18;30.41;100203.75;5067604;28;20075;-85
2022/04/04 04:31:09;;;;;;;0.77;0.57;;;;;;;9.67;30.29;100275.56;5078358;28;20053;-85
2022/04/04 04:33:37;;;;;;;0.97;0.80;;;;;;;9.55;30.35;100273.09;5070558;28;20049;-86
2022/04/04 04:36:04;;;;;;;1.13;0.90;;;;;;;9.46;30.16;100246.91;5070883;28;20127;-87
2022/04/04 04:38:31;;;;;;;4.43;0.73;;;;;;;9.68;30.45;100266.13;5070370;28;20167;-87
2022/04/04 04:40:58;;;;;;;0.90;0.80;;;;;;;9.52;30.13;100217.06;5073378;28;20132;-85
2022/04/04 04:43:25;;;;;;;0.70;0.60;;;;;;;9.86;30.40;100267.47;5055307;28;20141;-86
2022/04/04 04:45:52;;;;;;;1.43;0.60;;;;;;;9.73;30.35;100239.03;5085372;28;20118;-86
2022/04/04 04:48:19;;;;;;;3.13;0.70;;;;;;;9.56;30.28;100205.06;5060997;28;20048;-87
2022/04/04 04:50:47;;;;;;;1.80;1.00;;;;;;;9.80;30.55;100240.69;5060938;28;20580;-86
2022/04/04 04:53:15;;;;;;;1.47;0.73;;;;;;;9.69;30.51;100212.84;5071529;28;20444;-86
2022/04/04 04:55:42;;;;;;;2.07;0.90;;;;;;;9.76;30.12;100234.03;5054463;28;20048;-86
2022/04/04 04:58:09;;;;;;;1.50;0.70;;;;;;;9.43;30.20;100202.88;5077583;28;20049;-86
2022/04/04 05:00:37;;;;;;;2.63;0.90;;;;;;;9.46;30.52;100224.59;5068142;28;20364;-85
2022/04/04 05:05:50;;;;;;;0.70;0.70;;;;;;;9.05;30.72;100219.06;5057904;28;20049;-87
2022/04/04 05:08:18;;;;;;;0.57;0.57;;;;;;;8.93;30.86;100232.44;5080492;28;20052;-86
2022/04/04 05:10:48;;;;;;;1.00;0.77;;;;;;;8.38;31.25;100193.13;5065736;28;20139;-86
2022/04/04 05:13:17;;;;;;;0.87;0.67;;;;;;;8.36;31.34;100206.44;5068451;28;20044;-86
2022/04/04 05:15:44;;;;;;;1.10;1.00;;;;;;;8.62;31.35;100232.41;5062941;28;20067;-86
2022/04/04 05:18:11;;;;;;;1.80;1.10;;;;;;;8.71;31.14;100222.38;5063957;28;20048;-86
2022/04/04 05:20:38;;;;;;;1.70;0.90;;;;;;;9.07;30.83;100244.69;5067863;28;20079;-85
2022/04/04 05:23:05;;;;;;;2.17;0.60;;;;;;;8.87;31.22;100212.09;5064592;28;20624;-86
2022/04/04 05:25:32;;;;;;;0.70;0.67;;;;;;;8.87;31.23;100222.41;5068108;28;20044;-86
2022/04/04 05:27:59;;;;;;;1.80;0.90;;;;;;;8.83;31.19;100216.56;5065882;28;20056;-85
2022/04/04 05:30:26;;;;;;;1.03;0.70;;;;;;;9.14;31.12;100245.25;5060902;28;20131;-85
2022/04/04 05:32:54;;;;;;;1.33;0.97;;;;;;;8.96;31.37;100243.03;5073144;28;20457;-86
2022/04/04 05:35:21;;;;;;;3.33;0.90;;;;;;;8.91;31.19;100224.34;5063987;28;20052;-86
2022/04/04 05:37:48;;;;;;;2.73;1.00;;;;;;;8.93;31.41;100238.03;5056640;28;20053;-87
2022/04/04 05:40:15;;;;;;;1.97;1.57;;;;;;;8.70;31.76;100217.94;5062218;28;20151;-81
2022/04/04 05:42:42;;;;;;;1.73;1.20;;;;;;;8.58;31.89;100181.19;5068965;28;20076;-80
2022/04/04 05:45:09;;;;;;;1.67;1.00;;;;;;;8.87;31.87;100242.72;5066189;28;20123;-82
2022/04/04 05:47:36;;;;;;;0.93;0.87;;;;;;;8.70;32.44;100250.50;5066597;28;20040;-78
2022/04/04 05:50:04;;;;;;;1.23;0.97;;;;;;;8.75;32.32;100262.50;5062257;28;20053;-77
2022/04/04 05:52:34;;;;;;;2.13;1.13;;;;;;;8.60;32.38;100203.16;5066364;28;20052;-84
2022/04/04 05:55:03;;;;;;;3.10;1.50;;;;;;;8.65;32.51;100192.88;5077642;28;20087;-80
2022/04/04 05:57:36;;;;;;;2.07;1.20;;;;;;;9.06;32.42;100254.19;5062789;28;20586;-82
2022/04/04 06:00:08;;;;;;;1.10;1.00;;;;;;;9.12;32.33;100257.78;5065327;28;20040;-82
2022/04/04 06:02:39;;;;;;;1.87;1.10;;;;;;;8.20;32.32;100124.88;5064496;28;20133;-77
2022/04/04 06:05:08;;;;;;;7.67;1.47;;;;;;;8.70;32.56;100240.19;5079191;28;20053;-79
2022/04/04 06:07:36;;;;;;;1.33;1.20;;;;;;;8.79;32.14;100254.44;5062742;28;20048;-78
2022/04/04 06:10:05;;;;;;;7.03;1.47;;;;;;;8.69;31.75;100229.34;5088189;28;20084;-80
2022/04/04 06:12:36;;;;;;;1.58;1.15;;;;;;;8.86;31.60;100277.28;5064479;28;20076;-79
2022/04/04 06:15:04;;;;;;;7.50;7.00;;;;;;;8.68;31.68;100267.50;5080729;28;20045;-79
2022/04/04 06:17:31;;;;;;;8.03;7.53;;;;;;;8.45;31.74;100237.38;5060396;28;20053;-77
2022/04/04 06:19:58;;;;;;;10.00;9.00;;;;;;;8.73;31.58;100267.50;5069786;28;20059;-76
2022/04/04 06:22:25;;;;;;;9.00;8.30;;;;;;;8.80;31.28;100252.47;5063289;28;20509;-77
2022/04/04 06:24:52;;;;;;;11.50;10.77;;;;;;;8.75;31.58;100283.91;5066707;28;20083;-79
2022/04/04 06:27:18;;;;;;;8.20;7.70;;;;;;;7.97;31.66;100136.53;5064582;28;20128;-79
2022/04/04 06:29:46;;;;;;;10.03;9.43;;;;;;;8.40;31.78;100229.84;5065993;28;20503;-81
2022/04/04 06:32:13;;;;;;;8.17;7.67;;;;;;;8.48;31.62;100207.06;5068566;28;20394;-80
2022/04/04 06:34:39;;;;;;;7.47;7.07;;;;;;;8.49;31.91;100260.75;5071309;28;20053;-83
2022/04/04 06:37:07;;;;;;;10.90;10.30;;;;;;;8.73;31.57;100255.53;5076534;28;20147;-86
2022/04/04 06:39:33;;;;;;;8.50;7.70;;;;;;;8.74;31.57;100257.19;5065216;28;20132;-87
2022/04/04 06:42:01;;;;;;;9.40;8.70;;;;;;;8.67;31.41;100184.25;5066011;28;20053;-86
2022/04/04 06:44:28;;;;;;;13.90;9.10;;;;;;;9.09;31.09;100231.31;5066067;28;20068;-87
2022/04/04 06:46:56;;;;;;;10.00;9.50;;;;;;;8.90;30.93;100180.09;5070049;28;20075;-86
2022/04/04 06:49:23;;;;;;;10.03;9.43;;;;;;;9.23;31.01;100249.16;5062352;28;20055;-86
2022/04/04 06:51:53;;;;;;;6.50;6.20;;;;;;;9.03;31.07;100193.47;5074504;28;20181;-85
2022/04/04 06:54:20;;;;;;;9.43;8.98;;;;;;;9.53;31.09;100268.91;5077366;28;20469;-86
2022/04/04 06:56:48;;;;;;;9.73;7.80;;;;;;;9.86;30.68;100251.56;5075737;28;20048;-87
2022/04/04 06:59:18;;;;;;;7.87;7.37;;;;;;;10.22;30.46;100254.22;5074696;28;20110;-86
2022/04/04 07:01:49;;;;;;;9.30;8.80;;;;;;;9.99;30.17;100269.66;5057095;28;20141;-87
2022/04/04 07:04:17;;;;;;;10.07;9.50;;;;;;;9.78;30.36;100242.94;5056385;28;20061;-87
2022/04/04 07:06:44;;;;;;;7.53;7.13;;;;;;;10.17;30.23;100285.78;5074941;28;20519;-86
2022/04/04 07:09:11;;;;;;;8.80;8.10;;;;;;;10.02;29.99;100244.00;5077458;28;20056;-86
2022/04/04 07:11:38;;;;;;;9.13;8.53;;;;;;;10.07;29.83;100257.06;5075972;28;20057;-87
2022/04/04 07:14:06;;;;;;;9.77;9.17;;;;;;;10.10;29.64;100229.44;5089122;28;20060;-84
2022/04/04 07:16:33;;;;;;;11.60;11.00;;;;;;;10.58;29.33;100257.69;5091595;28;20025;-83
2022/04/04 07:19:00;;;;;;;9.07;8.47;;;;;;;10.54;29.44;100251.03;5094988;28;20055;-86
2022/04/04 07:21:28;;;;;;;12.07;11.37;;;;;;;10.76;28.79;100278.53;5088549;28;20063;-87
2022/04/04 07:23:55;;;;;;;8.83;8.33;;;;;;;10.68;28.99;100229.72;5094456;28;20515;-87
2022/04/04 07:26:23;;;;;;;9.10;8.60;;;;;;;10.05;29.13;100140.19;5075630;28;20114;-87
2022/04/04 07:28:50;;;;;;;10.43;9.73;;;;;;;11.49;28.75;100268.50;5077014;28;20131;-86
2022/04/04 07:31:17;;;;;;;9.90;9.30;;;;;;;12.18;28.51;100280.41;5073772;28;20040;-90
2022/04/04 07:33:44;;;;;;;9.53;8.97;;;;;;;12.09;27.97;100244.66;5076961;28;20048;-86
2022/04/04 07:36:11;;;;;;;9.50;9.00;;;;;;;11.89;27.70;100228.09;5065863;28;20052;-85
2022/04/04 07:38:38;;;;;;;10.50;9.70;;;;;;;12.00;27.53;100271.66;5072894;28;20075;-83
2022/04/04 07:41:06;;;;;;;10.13;9.53;;;;;;;12.61;27.56;100289.63;5065741;28;20567;-86
2022/04/04 07:43:33;;;;;;;10.70;9.90;;;;;;;12.29;27.07;100256.75;5066745;28;20115;-86
2022/04/04 07:46:00;;;;;;;9.10;8.50;;;;;;;12.20;27.10;100230.53;5074055;28;20071;-79
2022/04/04 07:48:28;;;;;;;8.87;8.17;;;;;;;12.64;27.08;100271.41;5070888;28;20125;-89
2022/04/04 07:50:55;;;;;;;9.37;8.90;;;;;;;12.42;26.98;100244.81;5066456;28;20060;-88
2022/04/04 07:53:22;;;;;;;9.40;8.80;;;;;;;12.72;26.84;100282.78;5068038;28;20596;-88
2022/04/04 07:55:49;;;;;;;8.87;8.37;;;;;;;12.41;26.32;100276.75;5069102;28;20048;-88
2022/04/04 07:58:17;;;;;;;9.67;9.13;;;;;;;12.56;26.67;100267.31;5076193;28;20048;-88
2022/04/04 08:00:45;;;;;;;8.57;8.07;;;;;;;12.88;26.68;100207.72;5072360;28;20088;-88
2022/04/04 08:03:12;;;;;;;10.47;9.87;;;;;;;13.36;26.38;100257.16;5073692;28;20110;-88
2022/04/04 08:05:39;;;;;;;8.60;8.10;;;;;;;13.23;25.78;100222.28;5072943;28;20509;-86
2022/04/04 08:08:06;;;;;;;8.23;7.73;;;;;;;13.85;25.91;100241.69;5080173;28;20080;-87
2022/04/04 08:10:33;;;;;;;9.73;8.87;;;;;;;14.23;25.99;100242.34;5071758;28;20138;-87
2022/04/04 08:13:00;;;;;;;7.90;7.50;;;;;;;14.55;25.28;100265.84;5070927;28;20477;-86
2022/04/04 08:15:27;;;;;;;8.50;8.07;;;;;;;14.20;25.17;100252.22;5077325;28;20105;-86
2022/04/04 08:17:56;;;;;;;8.80;8.30;;;;;;;14.54;24.85;100252.94;5069662;28;20135;-84
2022/04/04 08:20:23;;;;;;;8.83;8.23;;;;;;;14.17;24.77;100226.72;5083621;28;20044;-84
2022/04/04 08:22:49;;;;;;;8.57;8.10;;;;;;;14.00;24.65;100218.94;5074702;28;20765;-85
2022/04/04 08:25:17;;;;;;;7.70;7.30;;;;;;;13.67;25.00;100218.16;5066255;28;20520;-84
2022/04/04 08:27:44;;;;;;;8.27;7.80;;;;;;;13.40;25.05;100256.25;5078207;28;20075;-89
2022/04/04 08:30:13;;;;;;;8.60;8.10;;;;;;;13.43;25.13;100241.59;5068018;28;20048;-89
2022/04/04 08:32:41;;;;;;;10.50;9.70;;;;;;;13.95;25.11;100253.56;5069528;28;20532;-86
2022/04/04 08:35:11;;;;;;;9.40;9.00;;;;;;;14.43;24.54;100241.06;5065344;28;20079;-89
2022/04/04 08:37:41;;;;;;;10.98;10.48;;;;;;;14.04;24.59;100227.56;5061979;28;20056;-86
2022/04/04 08:40:10;;;;;;;7.90;7.45;;;;;;;13.97;24.93;100214.75;5066805;28;20420;-84
2022/04/04 08:42:38;;;;;;;7.35;6.95;;;;;;;14.12;24.53;100208.03;5063669;28;20049;-85
2022/04/04 08:45:06;;;;;;;9.20;7.90;;;;;;;14.19;24.05;100228.09;5065769;28;20044;-84
2022/04/04 08:47:34;;;;;;;8.47;7.87;;;;;;;14.71;24.62;100253.13;5081619;28;20167;-85
2022/04/04 08:50:02;;;;;;;7.90;7.50;;;;;;;13.93;24.34;100202.50;5071252;28;20516;-85
2022/04/04 08:52:29;;;;;;;8.30;7.60;;;;;;;14.09;24.37;100191.78;5086152;28;20561;-85
2022/04/04 08:54:56;;;;;;;8.63;8.13;;;;;;;13.59;24.36;100112.28;5068455;28;20107;-85
2022/04/04 08:57:23;;;;;;;8.37;7.87;;;;;;;13.77;24.49;100262.03;5066962;28;20139;-84
2022/04/04 08:59:50;;;;;;;7.60;7.20;;;;;;;12.28;25.11;100056.31;5078809;28;20076;-85
2022/04/04 09:02:17;;;;;;;8.30;7.90;;;;;;;12.67;25.05;100141.94;5065447;28;20567;-84
2022/04/04 09:04:50;;;;;;;8.30;7.80;;;;;;;13.59;25.13;100272.19;5062745;28;20061;-86
2022/04/04 09:07:19;;;;;;;11.40;10.80;;;;;;;13.67;25.08;100272.31;5074976;28;20079;-86
2022/04/04 09:09:50;;;;;;;8.50;8.10;;;;;;;13.49;25.20;100233.94;5067022;28;20080;-86
2022/04/04 09:12:20;;;;;;;8.87;8.20;;;;;;;13.94;25.13;100268.72;5082968;28;20102;-87
2022/04/04 09:14:48;;;;;;;9.05;8.48;;;;;;;14.54;24.79;100233.28;5071912;28;20087;-85
2022/04/04 09:17:18;;;;;;;8.87;8.20;;;;;;;15.41;24.62;100274.22;5068909;28;20102;-84
2022/04/04 09:19:45;;;;;;;9.63;8.82;;;;;;;15.67;23.68;100296.13;5070170;28;20131;-86
2022/04/04 09:22:15;;;;;;;9.80;8.60;;;;;;;15.35;23.59;100272.69;5065237;28;20072;-82
2022/04/04 09:24:46;;;;;;;8.38;7.93;;;;;;;15.34;23.53;100273.84;5069592;28;20056;-86
2022/04/04 09:27:18;;;;;;;10.00;9.50;;;;;;;15.08;23.61;100254.78;5074520;28;20068;-88
2022/04/04 09:29:46;;;;;;;8.60;8.00;;;;;;;15.09;23.62;100188.94;5077421;28;20751;-88
2022/04/04 09:32:15;;;;;;;8.67;8.07;;;;;;;15.79;23.32;100254.94;5064975;28;20084;-89
2022/04/04 09:34:52;;;;;;;9.13;8.57;;;;;;;16.80;23.10;100281.38;5073631;28;20091;-89
2022/04/04 09:37:24;;;;;;;10.53;8.70;;;;;;;16.57;22.63;100245.97;5070860;28;20123;-90
2022/04/04 09:40:02;;;;;;;8.03;7.53;;;;;;;16.72;22.41;100224.97;5069435;28;20072;-86
2022/04/04 09:43:02;;;;;;;8.97;8.17;;;;;;;16.98;21.74;100273.78;5066374;28;20110;-88
2022/04/04 09:45:30;;;;;;;10.83;8.87;;;;;;;16.17;21.86;100209.41;5067936;28;20139;-88
2022/04/04 09:48:06;;;;;;;8.50;7.90;;;;;;;16.47;21.87;100285.75;5064176;28;20133;-86
2022/04/04 09:50:46;;;;;;;8.10;7.70;;;;;;;15.97;22.31;100277.59;5082845;28;20134;-90
2022/04/04 09:53:15;;;;;;;9.60;8.00;;;;;;;15.58;22.82;100279.97;5063703;28;20424;-87
2022/04/04 09:55:45;;;;;;;11.85;11.25;;;;;;;15.78;22.47;100284.28;5064660;28;20492;-88
2022/04/04 09:58:15;;;;;;;10.80;9.98;;;;;;;14.86;22.63;100129.06;5076448;28;20094;-87
2022/04/04 10:00:44;;;;;;;8.60;8.10;;;;;;;15.50;22.88;100277.13;5071432;28;20105;-86
2022/04/04 10:03:12;;;;;;;9.40;8.60;;;;;;;15.02;22.66;100125.88;5068049;28;20051;-85
2022/04/04 10:05:47;;;;;;;9.40;8.93;;;;;;;16.34;22.48;100236.78;5075853;28;20056;-87
2022/04/04 10:08:17;;;;;;;9.47;8.77;;;;;;;16.33;22.01;100258.50;5071121;28;20072;-86
2022/04/04 10:10:44;;;;;;;7.55;7.15;;;;;;;15.74;21.97;100224.13;5064945;28;20554;-83
2022/04/04 10:13:16;;;;;;;8.30;7.60;;;;;;;15.85;22.42;100286.63;5062148;28;20144;-84
2022/04/04 10:15:44;;;;;;;10.40;9.80;;;;;;;15.72;22.17;100254.59;5078649;28;20051;-86
2022/04/04 10:18:11;;;;;;;8.20;7.70;;;;;;;16.43;22.14;100270.66;5066198;28;20053;-84
2022/04/04 10:20:38;;;;;;;7.97;7.47;;;;;;;16.91;21.67;100233.94;5065764;28;20087;-81
2022/04/04 10:23:09;;;;;;;12.00;11.07;;;;;;;17.19;21.38;100234.44;5072839;28;20566;-84
2022/04/04 10:25:36;;;;;;;9.80;9.03;;;;;;;17.80;21.68;100258.97;5069330;28;20071;-83
2022/04/04 10:28:03;;;;;;;10.45;9.75;;;;;;;17.96;21.27;100245.97;5072688;28;20450;-82
2022/04/04 10:30:34;;;;;;;9.48;9.07;;;;;;;18.23;20.85;100251.16;5070366;28;20048;-82
2022/04/04 10:33:02;;;;;;;;;;;;;;;18.36;21.01;100274.72;5067959;28;20581;-82
2022/04/04 10:35:31;;;;;;;8.75;8.10;;;;;;;18.47;20.41;100272.34;5067873;28;19959;-83
2022/04/04 10:38:03;;;;;;;8.25;7.75;;;;;;;18.70;20.88;100264.41;5063949;28;20072;-82
2022/04/04 10:40:33;;;;;;;9.02;8.48;;;;;;;18.97;20.62;100271.53;5084178;28;20125;-81
2022/04/04 10:43:10;;;;;;;9.40;8.90;;;;;;;18.89;20.59;100239.31;5070218;28;20075;-79
2022/04/04 10:45:52;;;;;;;10.18;9.57;;;;;;;18.50;19.90;100287.81;5070506;28;20076;-81
2022/04/04 10:48:25;;;;;;;4.68;1.60;;;;;;;17.55;20.52;100253.00;5072175;28;20064;-82
2022/04/04 10:50:52;;;;;;;3.40;1.75;;;;;;;17.50;20.71;100267.28;5073464;28;20105;-81
2022/04/04 10:53:43;;;;;;;2.70;1.48;;;;;;;17.14;20.65;100257.19;5083935;28;20048;-80
2022/04/04 10:56:17;;;;;;;9.27;8.55;;;;;;;17.21;21.17;100259.53;5081855;28;20091;-82
2022/04/04 10:58:45;;;;;;;9.77;9.15;;;;;;;17.19;21.09;100250.53;5076825;28;20088;-81
2022/04/04 11:01:16;;;;;;;8.80;8.10;;;;;;;17.68;20.97;100209.63;5070745;28;20044;-79
2022/04/04 11:03:52;;;;;;;9.48;8.77;;;;;;;19.13;20.60;100234.97;5071099;28;20063;-83
2022/04/04 11:09:26;;;;;;;8.57;7.97;;;;;;;20.16;19.35;100228.56;5072660;28;20044;-80
2022/04/04 11:12:15;;;;;;;9.13;8.43;;;;;;;20.16;19.57;100234.25;5073891;28;20089;-80
2022/04/04 11:14:54;;;;;;;9.75;9.10;;;;;;;20.33;19.52;100217.81;5075345;28;20054;-81
2022/04/04 11:17:23;;;;;;;10.13;9.52;;;;;;;20.76;19.64;100221.25;5066874;28;20052;-80
2022/04/04 11:20:31;;;;;;;10.13;9.52;;;;;;;20.12;19.22;100186.75;5073752;28;20048;-80
2022/04/04 11:23:09;;;;;;;12.18;11.40;;;;;;;20.37;19.76;100200.91;5070503;28;20071;-79
2022/04/04 11:25:48;;;;;;;10.05;9.48;;;;;;;20.23;18.81;100225.97;5079399;28;20123;-82
2022/04/04 11:28:18;;;;;;;11.25;10.43;;;;;;;19.86;19.29;100215.44;5082849;28;20056;-82
2022/04/04 11:30:46;;;;;;;14.07;12.98;;;;;;;20.02;19.41;100234.56;5069566;28;20098;-82
2022/04/04 11:33:22;;;;;;;12.23;11.63;;;;;;;20.16;19.30;100200.22;5065662;28;20072;-80
2022/04/04 11:35:50;;;;;;;10.50;9.80;;;;;;;20.73;19.18;100227.63;5082800;28;20059;-80
2022/04/04 11:38:20;;;;;;;11.15;10.55;;;;;;;20.84;19.28;100174.88;5066786;28;20401;-80
2022/04/04 11:40:55;;;;;;;12.23;11.63;;;;;;;21.50;19.01;100204.81;5070799;28;20053;-82
2022/04/04 11:43:24;;;;;;;11.25;10.55;;;;;;;20.95;18.32;100156.13;5072752;28;20059;-81